Time;durP1;ratioP1;P1;durP2;ratioP2;P2;SDS_P1;SDS_P2;PMS_P1;PMS_P2;Temp;Humidity;BMP_temperature;BMP_pressure;BME280_temperature;BME280_humidity;BME280_pressure;Samples;Min_cycle;Max_cycle;Signal;HPM_P1;HPM_P2
2022/11/24 00:01:14;;;;;;;148.23;55.65;;;2.50;99.90;;;;;;5049428;28;20104;-45
2022/11/24 00:03:39;;;;;;;143.40;54.33;;;2.50;99.90;;;;;;5039277;28;20029;-49
2022/11/24 00:06:10;;;;;;;188.27;60.58;;;2.50;99.90;;;;;;5042576;28;20108;-51
2022/11/24 00:08:37;;;;;;;160.02;60.72;;;2.50;99.90;;;;;;5039133;28;20513;-47
2022/11/24 00:11:05;;;;;;;128.65;53.42;;;2.50;99.90;;;;;;5055882;28;20033;-52
2022/11/24 00:13:31;;;;;;;167.18;61.03;;;2.50;99.90;;;;;;5068900;28;20048;-50
2022/11/24 00:16:04;;;;;;;164.35;57.00;;;2.50;99.90;;;;;;5056862;28;20043;-50
2022/11/24 00:18:30;;;;;;;157.30;55.13;;;2.50;99.90;;;;;;5029938;28;20033;-48
2022/11/24 00:20:55;;;;;;;129.95;51.17;;;2.50;99.90;;;;;;5064929;28;20097;-47
2022/11/24 00:23:21;;;;;;;161.75;53.63;;;2.60;99.90;;;;;;5050221;28;20037;-48
2022/11/24 00:25:46;;;;;;;113.60;42.25;;;2.60;99.90;;;;;;5066570;28;20419;-46
2022/11/24 00:28:11;;;;;;;141.98;47.75;;;2.60;99.90;;;;;;5050076;28;20037;-46
2022/11/24 00:30:37;;;;;;;168.90;52.70;;;2.60;99.90;;;;;;5041088;28;20036;-46
2022/11/24 00:33:02;;;;;;;150.27;52.63;;;2.60;99.90;;;;;;5068446;28;20032;-48
2022/11/24 00:35:28;;;;;;;141.35;53.38;;;2.60;99.90;;;;;;5056004;28;20400;-52
2022/11/24 00:37:54;;;;;;;176.05;56.28;;;2.60;99.90;;;;;;5049314;28;20037;-49
2022/11/24 00:40:20;;;;;;;149.23;53.25;;;2.60;99.90;;;;;;5059089;28;20206;-47
2022/11/24 00:42:45;;;;;;;147.80;55.80;;;2.60;99.90;;;;;;5048768;28;20661;-47
2022/11/24 00:45:11;;;;;;;171.27;57.45;;;2.60;99.90;;;;;;5060408;28;20044;-49
2022/11/24 00:47:36;;;;;;;201.50;59.50;;;2.60;99.90;;;;;;5048729;28;20040;-50
2022/11/24 00:50:01;;;;;;;175.50;58.50;;;2.60;99.90;;;;;;5061642;28;20056;-51
2022/11/24 00:52:27;;;;;;;176.23;58.60;;;2.50;99.90;;;;;;5048767;28;20485;-51
2022/11/24 00:54:52;;;;;;;142.52;50.85;;;2.50;99.90;;;;;;5062457;28;20108;-48
2022/11/24 00:57:18;;;;;;;152.68;48.33;;;2.50;99.90;;;;;;5048713;28;20389;-47
2022/11/24 00:59:43;;;;;;;144.70;53.47;;;2.50;99.90;;;;;;5063544;28;20025;-49
2022/11/24 01:02:09;;;;;;;157.32;51.45;;;2.50;99.90;;;;;;5048665;28;20032;-45
2022/11/24 01:04:35;;;;;;;142.77;48.55;;;2.50;99.90;;;;;;5063326;28;20024;-52
2022/11/24 01:07:00;;;;;;;173.45;56.13;;;2.50;99.90;;;;;;5048679;28;20032;-49
2022/11/24 01:09:26;;;;;;;153.30;51.63;;;2.50;99.90;;;;;;5067517;28;20562;-47
2022/11/24 01:12:00;;;;;;;149.70;53.15;;;2.50;99.90;;;;;;5046744;28;20630;-49
2022/11/24 01:14:26;;;;;;;153.02;50.30;;;2.50;99.90;;;;;;5027925;28;20089;-48
2022/11/24 01:16:52;;;;;;;156.30;49.75;;;2.50;99.90;;;;;;5046415;28;20520;-47
2022/11/24 01:19:18;;;;;;;176.90;54.70;;;2.60;99.90;;;;;;5067481;28;20043;-46
2022/11/24 01:21:43;;;;;;;184.48;56.28;;;2.50;99.90;;;;;;5047027;28;20374;-48
2022/11/24 01:24:09;;;;;;;130.00;47.78;;;2.50;99.90;;;;;;5067362;28;20492;-47
2022/11/24 01:26:35;;;;;;;142.40;45.75;;;2.60;99.90;;;;;;5046896;28;20517;-52
2022/11/24 01:29:00;;;;;;;207.48;58.13;;;2.50;99.90;;;;;;5049699;28;20115;-51
2022/11/24 01:31:26;;;;;;;197.38;57.35;;;2.50;99.90;;;;;;5066430;28;20094;-48
2022/11/24 01:33:53;;;;;;;177.57;61.08;;;2.50;99.90;;;;;;5046723;28;20032;-48
2022/11/24 01:36:19;;;;;;;149.25;54.97;;;2.50;99.90;;;;;;5052312;28;20108;-52
2022/11/24 01:38:44;;;;;;;194.35;56.03;;;2.40;99.90;;;;;;5067342;28;20033;-49
2022/11/24 01:41:12;;;;;;;175.52;54.75;;;2.40;99.90;;;;;;5046311;28;20086;-48
2022/11/24 01:43:37;;;;;;;206.27;56.85;;;2.40;99.90;;;;;;5067166;28;20112;-45
2022/11/24 01:46:34;;;;;;;151.73;49.08;;;2.40;99.90;;;;;;5057790;28;20470;-48
2022/11/24 01:49:35;;;;;;;173.02;52.88;;;2.40;99.90;;;;;;5048043;28;20279;-49
2022/11/24 01:52:05;;;;;;;169.02;51.35;;;2.40;99.90;;;;;;5020572;28;20040;-48
2022/11/24 01:54:35;;;;;;;162.98;50.55;;;2.40;99.90;;;;;;5067540;28;20039;-47
2022/11/24 01:57:17;;;;;;;192.88;52.40;;;2.40;99.90;;;;;;5044808;28;20055;-44
2022/11/24 01:59:45;;;;;;;152.80;49.75;;;2.40;99.90;;;;;;5027403;28;20555;-51
2022/11/24 02:02:11;;;;;;;145.98;46.67;;;2.40;99.90;;;;;;5028093;28;20039;-47
2022/11/24 02:04:38;;;;;;;153.50;45.38;;;2.40;99.90;;;;;;5060389;28;20255;-45
2022/11/24 02:07:05;;;;;;;125.70;40.72;;;2.50;99.90;;;;;;5045892;28;20086;-47
2022/11/24 02:09:54;;;;;;;126.45;38.22;;;2.60;99.90;;;;;;5067114;28;20025;-46
2022/11/24 02:12:23;;;;;;;129.90;41.03;;;2.50;99.90;;;;;;5027672;28;20029;-47
2022/11/24 02:14:49;;;;;;;164.45;39.60;;;2.50;99.90;;;;;;5058803;28;20029;-49
2022/11/24 02:17:14;;;;;;;120.65;40.67;;;2.60;99.90;;;;;;5067865;28;20031;-46
2022/11/24 02:19:40;;;;;;;173.60;41.30;;;2.50;99.90;;;;;;5047782;28;20313;-45
2022/11/24 02:22:20;;;;;;;207.77;48.25;;;2.60;99.90;;;;;;5065809;28;20043;-47
2022/11/24 02:25:35;;;;;;;169.48;44.47;;;2.50;99.90;;;;;;5026495;28;20030;-47
2022/11/24 02:28:04;;;;;;;227.35;53.92;;;2.50;99.90;;;;;;4958168;28;20070;-46
2022/11/24 02:30:30;;;;;;;154.25;47.13;;;2.40;99.90;;;;;;5053695;28;20131;-47
2022/11/24 02:32:55;;;;;;;129.43;41.83;;;2.40;99.90;;;;;;5071050;28;20100;-46
2022/11/24 02:35:21;;;;;;;162.07;46.75;;;2.40;99.90;;;;;;5055027;28;20042;-46
2022/11/24 02:37:47;;;;;;;131.55;41.00;;;2.40;99.90;;;;;;5071171;28;20076;-50
2022/11/24 02:40:23;;;;;;;135.15;40.30;;;2.40;99.90;;;;;;5051519;28;20044;-47
2022/11/24 02:42:52;;;;;;;220.23;47.80;;;2.40;99.90;;;;;;5051199;28;20067;-48
2022/11/24 02:45:17;;;;;;;176.57;45.63;;;2.40;99.90;;;;;;5068878;28;20020;-45
2022/11/24 02:47:43;;;;;;;103.47;37.67;;;2.40;99.90;;;;;;5070855;28;20033;-48
2022/11/24 02:50:08;;;;;;;150.63;41.58;;;2.40;99.90;;;;;;5053279;28;20062;-47
2022/11/24 02:52:34;;;;;;;112.68;32.47;;;2.50;99.90;;;;;;5070885;28;20397;-53
2022/11/24 02:54:59;;;;;;;122.95;37.75;;;2.50;99.90;;;;;;5051595;28;20417;-47
2022/11/24 02:57:25;;;;;;;133.00;39.33;;;2.50;99.90;;;;;;5070873;28;20029;-48
2022/11/24 02:59:50;;;;;;;135.55;40.42;;;2.50;99.90;;;;;;5050287;28;20037;-46
2022/11/24 03:02:16;;;;;;;145.90;40.75;;;2.50;99.90;;;;;;5070692;28;20021;-46
2022/11/24 03:04:43;;;;;;;137.43;41.67;;;2.50;99.90;;;;;;5046845;28;20095;-48
2022/11/24 03:07:09;;;;;;;153.50;42.05;;;2.50;99.90;;;;;;5030941;28;20486;-46
2022/11/24 03:09:34;;;;;;;140.07;37.33;;;2.40;99.90;;;;;;5069198;28;20029;-46
2022/11/24 03:12:00;;;;;;;169.32;44.28;;;2.40;99.90;;;;;;5048983;28;20106;-46
2022/11/24 03:14:25;;;;;;;144.75;41.42;;;2.40;99.90;;;;;;5069794;28;20024;-46
2022/11/24 03:16:51;;;;;;;120.80;39.80;;;2.40;99.90;;;;;;5049189;28;20047;-48
2022/11/24 03:19:16;;;;;;;171.48;41.70;;;2.50;99.90;;;;;;5069707;28;20029;-47
2022/11/24 03:21:41;;;;;;;150.00;40.25;;;2.40;99.90;;;;;;5048795;28;20037;-49
2022/11/24 03:24:07;;;;;;;170.25;40.50;;;2.50;99.90;;;;;;5069804;28;20033;-49
2022/11/24 03:26:33;;;;;;;132.65;37.90;;;2.50;99.90;;;;;;5048713;28;20033;-46
2022/11/24 03:28:59;;;;;;;183.90;43.33;;;2.50;99.90;;;;;;5069251;28;20509;-49
2022/11/24 03:31:24;;;;;;;110.22;37.85;;;2.40;99.90;;;;;;5049009;28;20296;-47
2022/11/24 03:33:50;;;;;;;127.35;36.42;;;2.40;99.90;;;;;;5069086;28;20293;-46
2022/11/24 03:36:16;;;;;;;134.57;38.28;;;2.40;99.90;;;;;;5048656;28;20051;-47
2022/11/24 03:38:41;;;;;;;116.60;32.08;;;2.40;99.90;;;;;;5069151;28;20032;-50
2022/11/24 03:41:07;;;;;;;117.68;35.08;;;2.40;99.90;;;;;;5048458;28;20052;-47
2022/11/24 03:43:32;;;;;;;139.68;37.58;;;2.50;99.90;;;;;;5069021;28;20055;-51
2022/11/24 03:45:58;;;;;;;107.50;32.28;;;2.40;99.90;;;;;;5058770;28;20396;-48
2022/11/24 03:48:24;;;;;;;106.03;30.70;;;2.40;99.90;;;;;;5050372;28;20112;-45
2022/11/24 03:50:57;;;;;;;127.00;35.72;;;2.50;99.90;;;;;;5066940;28;20077;-46
2022/11/24 03:53:24;;;;;;;132.57;33.38;;;2.40;99.90;;;;;;5049705;28;20033;-46
2022/11/24 03:55:50;;;;;;;119.03;37.42;;;2.40;99.90;;;;;;5067383;28;20029;-49
2022/11/24 03:58:15;;;;;;;153.70;40.13;;;2.40;99.90;;;;;;5049949;28;20060;-47
2022/11/24 04:00:41;;;;;;;148.43;39.08;;;2.40;99.90;;;;;;5066954;28;20037;-48
2022/11/24 04:03:06;;;;;;;149.80;39.90;;;2.30;99.90;;;;;;5050062;28;20492;-49
2022/11/24 04:05:35;;;;;;;133.38;36.30;;;2.30;99.90;;;;;;5049814;28;20393;-47
2022/11/24 04:08:02;;;;;;;138.88;38.78;;;2.30;99.90;;;;;;5051362;28;20033;-49
2022/11/24 04:10:28;;;;;;;130.55;36.47;;;2.20;99.90;;;;;;5069175;28;20549;-48
2022/11/24 04:12:54;;;;;;;95.60;32.25;;;2.30;99.90;;;;;;5048171;28;20041;-50
2022/11/24 04:15:20;;;;;;;101.35;28.63;;;2.30;99.90;;;;;;5069133;28;20656;-48
2022/11/24 04:17:48;;;;;;;124.38;33.97;;;2.30;99.90;;;;;;5047995;28;20021;-51
2022/11/24 04:20:14;;;;;;;140.10;33.60;;;2.30;99.90;;;;;;5069117;28;20515;-52
2022/11/24 04:22:40;;;;;;;124.53;35.42;;;2.30;99.90;;;;;;5048002;28;20037;-46
2022/11/24 04:25:06;;;;;;;104.68;33.80;;;2.30;99.90;;;;;;5068466;28;20036;-49
2022/11/24 04:27:33;;;;;;;127.57;34.67;;;2.20;99.90;;;;;;5047950;28;20033;-51
2022/11/24 04:29:59;;;;;;;139.18;34.72;;;2.30;99.90;;;;;;5068543;28;20028;-49
2022/11/24 04:32:24;;;;;;;115.32;30.38;;;2.30;99.90;;;;;;5048105;28;20025;-53
2022/11/24 04:34:50;;;;;;;127.45;32.83;;;2.30;99.90;;;;;;5065335;28;20436;-47
2022/11/24 04:37:15;;;;;;;109.82;29.23;;;2.30;99.90;;;;;;5049283;28;20108;-50
2022/11/24 04:39:41;;;;;;;105.00;29.08;;;2.30;99.90;;;;;;5066390;28;20040;-50
2022/11/24 04:42:06;;;;;;;104.47;28.88;;;2.30;99.90;;;;;;5047231;28;20132;-50
2022/11/24 04:44:31;;;;;;;168.73;33.90;;;2.30;99.90;;;;;;5068245;28;20389;-46
2022/11/24 04:46:57;;;;;;;141.70;29.42;;;2.30;99.90;;;;;;5047537;28;20025;-50
2022/11/24 04:49:22;;;;;;;124.68;30.08;;;2.20;99.90;;;;;;5067643;28;20674;-50
2022/11/24 04:51:48;;;;;;;105.47;27.67;;;2.20;99.90;;;;;;5047462;28;20033;-51
2022/11/24 04:54:14;;;;;;;117.60;33.15;;;2.20;99.90;;;;;;5068337;28;20056;-52
2022/11/24 04:56:41;;;;;;;120.68;31.55;;;2.20;99.90;;;;;;5045995;28;20108;-50
2022/11/24 04:59:07;;;;;;;76.45;24.88;;;2.20;99.90;;;;;;5068185;28;20081;-46
2022/11/24 05:01:32;;;;;;;94.07;25.52;;;2.20;99.90;;;;;;5047458;28;20037;-52
2022/11/24 05:03:58;;;;;;;87.63;25.92;;;2.20;99.90;;;;;;5067811;28;20032;-47
2022/11/24 05:06:23;;;;;;;87.57;24.45;;;2.20;99.90;;;;;;5040914;28;20496;-52
2022/11/24 05:08:51;;;;;;;144.60;31.98;;;2.20;99.90;;;;;;5061597;28;20556;-47
2022/11/24 05:11:18;;;;;;;168.98;34.45;;;2.10;99.90;;;;;;5028938;28;20040;-49
2022/11/24 05:13:44;;;;;;;152.77;32.30;;;2.10;99.90;;;;;;5061385;28;20025;-51
2022/11/24 05:16:09;;;;;;;189.63;34.67;;;2.10;99.90;;;;;;5048234;28;20044;-52
2022/11/24 05:18:36;;;;;;;108.72;29.35;;;2.10;99.90;;;;;;5062257;28;20025;-51
2022/11/24 05:21:02;;;;;;;145.63;31.33;;;2.10;99.90;;;;;;5047128;28;20041;-50
2022/11/24 05:23:28;;;;;;;110.50;32.42;;;2.10;99.90;;;;;;5045976;28;20040;-49
2022/11/24 05:25:57;;;;;;;137.45;32.25;;;2.10;99.90;;;;;;5048278;28;20040;-48
2022/11/24 05:28:23;;;;;;;90.95;28.27;;;2.00;99.90;;;;;;5063165;28;20684;-48
2022/11/24 05:30:48;;;;;;;128.82;29.13;;;2.00;99.90;;;;;;5048354;28;20064;-51
2022/11/24 05:33:18;;;;;;;122.78;33.33;;;2.00;99.90;;;;;;5054173;28;20025;-49
2022/11/24 05:35:46;;;;;;;105.93;27.75;;;2.00;99.90;;;;;;5028337;28;20036;-45
2022/11/24 05:38:11;;;;;;;78.32;23.55;;;2.00;99.90;;;;;;5054336;28;20103;-47
2022/11/24 05:40:37;;;;;;;137.07;29.30;;;2.00;99.90;;;;;;5057821;28;20128;-45
2022/11/24 05:43:03;;;;;;;118.07;29.77;;;1.90;99.90;;;;;;5055184;28;20031;-49
2022/11/24 05:45:28;;;;;;;112.07;27.10;;;2.00;99.90;;;;;;5067662;28;20028;-47
2022/11/24 05:47:54;;;;;;;93.38;25.17;;;2.00;99.90;;;;;;5046371;28;20047;-45
2022/11/24 05:50:21;;;;;;;93.63;23.73;;;2.00;99.90;;;;;;5066945;28;20048;-44
2022/11/24 05:52:48;;;;;;;99.22;26.67;;;2.00;99.90;;;;;;5049170;28;20095;-45
2022/11/24 05:55:14;;;;;;;95.55;24.48;;;2.00;99.90;;;;;;5050045;28;20676;-47
2022/11/24 05:57:40;;;;;;;182.68;33.90;;;2.00;99.90;;;;;;5068323;28;20027;-46
2022/11/24 06:00:08;;;;;;;104.22;26.85;;;1.90;99.90;;;;;;5049719;28;20029;-45
2022/11/24 06:02:33;;;;;;;85.25;24.85;;;1.90;99.90;;;;;;5064106;28;20039;-50
2022/11/24 06:04:59;;;;;;;80.80;23.70;;;1.90;99.90;;;;;;5044317;28;20112;-45
2022/11/24 06:07:24;;;;;;;115.00;30.10;;;2.00;99.90;;;;;;5052151;28;20025;-46
2022/11/24 06:09:49;;;;;;;117.05;25.65;;;1.90;99.90;;;;;;5058583;28;20116;-46
2022/11/24 06:12:15;;;;;;;101.53;23.85;;;2.00;99.90;;;;;;5071438;28;20036;-45
2022/11/24 06:14:41;;;;;;;97.47;23.02;;;2.00;99.90;;;;;;5050996;28;20513;-45
2022/11/24 06:17:11;;;;;;;141.95;30.00;;;2.00;99.90;;;;;;5071384;28;20033;-46
2022/11/24 06:19:37;;;;;;;87.03;23.95;;;2.00;99.90;;;;;;5039943;28;20086;-46
2022/11/24 06:22:03;;;;;;;87.55;25.27;;;2.00;99.90;;;;;;5071503;28;20060;-46
2022/11/24 06:24:28;;;;;;;132.80;26.40;;;2.00;99.90;;;;;;5058847;28;20029;-46
2022/11/24 06:26:54;;;;;;;144.52;28.63;;;2.00;99.90;;;;;;5052334;28;20403;-47
2022/11/24 06:29:19;;;;;;;87.63;26.80;;;2.00;99.90;;;;;;5068904;28;20029;-45
2022/11/24 06:31:44;;;;;;;93.40;26.02;;;2.00;99.90;;;;;;5071523;28;20040;-44
2022/11/24 06:34:12;;;;;;;72.75;23.05;;;1.90;99.90;;;;;;5056387;28;20033;-44
2022/11/24 06:36:37;;;;;;;84.82;24.85;;;2.00;99.90;;;;;;5054015;28;20029;-45
2022/11/24 06:39:04;;;;;;;110.68;29.05;;;2.00;99.90;;;;;;5071095;28;20086;-45
2022/11/24 06:41:29;;;;;;;86.70;24.60;;;1.90;99.90;;;;;;5049921;28;20047;-45
2022/11/24 06:43:55;;;;;;;80.75;22.65;;;1.90;99.90;;;;;;5055941;28;20120;-49
2022/11/24 06:46:21;;;;;;;107.28;25.83;;;2.00;99.90;;;;;;5049190;28;20037;-45
2022/11/24 06:48:47;;;;;;;85.95;23.70;;;2.00;99.90;;;;;;5059323;28;20623;-46
2022/11/24 06:51:13;;;;;;;106.72;24.52;;;2.00;99.90;;;;;;5069578;28;20030;-45
2022/11/24 06:53:39;;;;;;;108.00;26.17;;;2.00;99.90;;;;;;5048400;28;20029;-47
2022/11/24 06:56:08;;;;;;;96.28;26.33;;;2.00;99.90;;;;;;5049141;28;20031;-49
2022/11/24 06:58:33;;;;;;;90.55;24.63;;;2.00;99.90;;;;;;5061461;28;20040;-47
2022/11/24 07:00:59;;;;;;;76.85;22.02;;;2.00;99.90;;;;;;5050026;28;20033;-47
2022/11/24 07:03:24;;;;;;;67.82;22.67;;;2.00;99.90;;;;;;5039216;28;20033;-45
2022/11/24 07:05:57;;;;;;;82.20;25.23;;;2.00;99.90;;;;;;5062101;28;20039;-47
2022/11/24 07:08:23;;;;;;;81.50;24.73;;;2.00;99.90;;;;;;5048567;28;20040;-45
2022/11/24 07:10:48;;;;;;;97.43;25.65;;;2.00;99.90;;;;;;5061072;28;20021;-46
2022/11/24 07:13:14;;;;;;;92.70;27.52;;;2.00;99.90;;;;;;5049706;28;20083;-45
2022/11/24 07:15:39;;;;;;;82.55;27.25;;;2.00;99.90;;;;;;5067031;28;20024;-50
2022/11/24 07:18:05;;;;;;;84.57;27.77;;;2.00;99.90;;;;;;5069787;28;20528;-45
2022/11/24 07:20:30;;;;;;;104.53;28.13;;;1.90;99.90;;;;;;5053364;28;20115;-46
2022/11/24 07:22:56;;;;;;;86.72;24.27;;;1.90;99.90;;;;;;5069782;28;20029;-47
2022/11/24 07:25:25;;;;;;;102.72;26.42;;;1.90;99.90;;;;;;5051895;28;20484;-46
2022/11/24 07:27:58;;;;;;;95.97;26.15;;;1.90;99.90;;;;;;5069595;28;20431;-45
2022/11/24 07:30:24;;;;;;;73.63;22.90;;;2.00;99.90;;;;;;5051693;28;20089;-46
2022/11/24 07:32:50;;;;;;;89.80;25.08;;;2.00;99.90;;;;;;5069707;28;20040;-46
2022/11/24 07:35:16;;;;;;;98.30;23.17;;;2.10;99.90;;;;;;5050662;28;20024;-50
2022/11/24 07:37:42;;;;;;;90.85;24.65;;;2.10;99.90;;;;;;5069442;28;20381;-49
2022/11/24 07:40:08;;;;;;;81.70;23.02;;;2.10;99.90;;;;;;5051177;28;20051;-46
2022/11/24 07:42:33;;;;;;;138.73;30.58;;;2.20;99.90;;;;;;5049242;28;20029;-47
2022/11/24 07:44:59;;;;;;;75.57;25.02;;;2.10;99.90;;;;;;5066511;28;20029;-47
2022/11/24 07:47:25;;;;;;;103.47;27.60;;;2.10;99.90;;;;;;5068901;28;20031;-48
2022/11/24 07:49:50;;;;;;;103.72;25.08;;;2.20;99.90;;;;;;5049750;28;20064;-46
2022/11/24 07:52:15;;;;;;;90.30;24.88;;;2.20;99.90;;;;;;5066841;28;20028;-44
2022/11/24 07:54:41;;;;;;;85.65;25.50;;;2.30;99.90;;;;;;5049541;28;20618;-45
2022/11/24 07:57:06;;;;;;;89.35;26.27;;;2.30;99.90;;;;;;5048324;28;20044;-46
2022/11/24 07:59:32;;;;;;;71.18;23.23;;;2.30;99.90;;;;;;5068121;28;20038;-47
2022/11/24 08:01:57;;;;;;;68.95;22.80;;;2.40;99.90;;;;;;5047468;28;20052;-45
2022/11/24 08:04:23;;;;;;;61.58;21.23;;;2.50;99.90;;;;;;5067802;28;20115;-45
2022/11/24 08:06:48;;;;;;;59.85;21.00;;;2.50;99.90;;;;;;5040822;28;20044;-46
2022/11/24 08:09:14;;;;;;;58.22;20.45;;;2.50;99.90;;;;;;5049342;28;20040;-44
2022/11/24 08:11:39;;;;;;;84.32;26.65;;;2.50;99.90;;;;;;5052876;28;20784;-45
2022/11/24 08:14:05;;;;;;;62.53;21.80;;;2.60;99.90;;;;;;5069082;28;20071;-50
2022/11/24 08:16:31;;;;;;;59.20;20.17;;;2.60;99.90;;;;;;5048702;28;20035;-49
2022/11/24 08:18:56;;;;;;;63.90;22.33;;;2.60;99.90;;;;;;5069160;28;20081;-49
2022/11/24 08:21:22;;;;;;;67.82;20.02;;;2.70;99.90;;;;;;5048621;28;20048;-50
2022/11/24 08:23:48;;;;;;;102.45;30.27;;;2.70;99.90;;;;;;5068046;28;20105;-47
2022/11/24 08:26:17;;;;;;;95.80;30.55;;;2.60;99.90;;;;;;5059165;28;20089;-48
2022/11/24 08:28:44;;;;;;;73.63;24.00;;;2.60;99.90;;;;;;5049571;28;20036;-52
2022/11/24 08:31:15;;;;;;;62.58;24.60;;;2.50;99.90;;;;;;5067138;28;20033;-48
2022/11/24 08:33:41;;;;;;;68.75;24.52;;;2.50;99.90;;;;;;5029819;28;20033;-47
2022/11/24 08:36:17;;;;;;;58.42;22.65;;;2.50;99.90;;;;;;5066290;28;20035;-48
2022/11/24 08:38:43;;;;;;;;;;;2.60;99.90;;;;;;5050305;28;20108;-48
2022/11/24 08:41:14;;;;;;;59.88;22.10;;;2.60;99.90;;;;;;5066396;28;20081;-47
2022/11/24 08:43:40;;;;;;;54.10;20.13;;;2.70;99.90;;;;;;5029517;28;20034;-51
2022/11/24 08:46:09;;;;;;;45.15;18.77;;;2.80;99.90;;;;;;5066261;28;20109;-46
2022/11/24 08:48:35;;;;;;;52.83;21.65;;;2.90;99.90;;;;;;5049241;28;20489;-47
2022/11/24 08:51:10;;;;;;;59.22;19.88;;;2.90;99.90;;;;;;5066597;28;20043;-48
2022/11/24 08:53:35;;;;;;;49.97;19.25;;;3.00;99.90;;;;;;5049352;28;20025;-48
2022/11/24 08:56:02;;;;;;;57.25;20.50;;;3.00;99.90;;;;;;5066356;28;20149;-50
2022/11/24 08:58:28;;;;;;;76.60;21.05;;;3.10;99.90;;;;;;5049466;28;20120;-50
2022/11/24 09:00:54;;;;;;;49.30;19.75;;;3.10;99.90;;;;;;5066395;28;20566;-48
2022/11/24 09:03:19;;;;;;;49.35;18.95;;;3.10;99.90;;;;;;5049568;28;20033;-49
2022/11/24 09:05:45;;;;;;;74.10;23.05;;;3.20;99.90;;;;;;5058198;28;20025;-51
2022/11/24 09:08:10;;;;;;;65.65;23.60;;;3.20;99.90;;;;;;5068988;28;20028;-49
2022/11/24 09:10:36;;;;;;;58.28;23.23;;;3.20;99.90;;;;;;5053134;28;20034;-49
2022/11/24 09:13:02;;;;;;;83.13;24.73;;;3.30;99.90;;;;;;5068902;28;20108;-48
2022/11/24 09:15:27;;;;;;;76.97;25.83;;;3.30;99.90;;;;;;5051994;28;20024;-47
2022/11/24 09:17:53;;;;;;;78.75;26.58;;;3.20;99.90;;;;;;5068938;28;20031;-47
2022/11/24 09:20:19;;;;;;;65.15;24.27;;;3.10;99.90;;;;;;5050749;28;20400;-47
2022/11/24 09:22:46;;;;;;;65.65;23.02;;;3.10;99.90;;;;;;5068711;28;20028;-47
2022/11/24 09:25:12;;;;;;;46.95;18.88;;;3.10;99.90;;;;;;5049488;28;20090;-47
2022/11/24 09:27:37;;;;;;;71.22;21.73;;;3.20;99.90;;;;;;5068677;28;20028;-46
2022/11/24 09:30:03;;;;;;;46.72;17.75;;;3.20;99.90;;;;;;5048390;28;20033;-48
2022/11/24 09:32:29;;;;;;;65.53;23.33;;;3.20;99.90;;;;;;5068704;28;20103;-52
2022/11/24 09:34:55;;;;;;;73.93;23.30;;;3.20;99.90;;;;;;5046758;28;20052;-48
2022/11/24 09:37:21;;;;;;;71.13;22.85;;;3.20;99.90;;;;;;5028790;28;20029;-48
2022/11/24 09:39:46;;;;;;;64.60;22.73;;;3.10;99.90;;;;;;5063314;28;20052;-48
2022/11/24 09:42:28;;;;;;;45.20;20.50;;;3.00;99.90;;;;;;5046730;28;20052;-46
2022/11/24 09:45:12;;;;;;;54.92;20.30;;;3.00;99.90;;;;;;5028506;28;20060;-47
2022/11/24 09:47:55;;;;;;;65.88;22.70;;;3.10;99.90;;;;;;5028554;28;20075;-48
2022/11/24 09:50:28;;;;;;;64.88;23.60;;;3.10;99.90;;;;;;5034018;28;20035;-49
2022/11/24 09:53:02;;;;;;;50.03;20.90;;;3.10;99.90;;;;;;5068561;28;20032;-47
2022/11/24 09:55:37;;;;;;;49.45;20.63;;;3.20;99.90;;;;;;5035822;28;20436;-53
2022/11/24 09:58:16;;;;;;;54.03;24.65;;;3.30;99.90;;;;;;5068294;28;20020;-50
2022/11/24 10:00:41;;;;;;;41.58;18.85;;;3.20;99.90;;;;;;5039385;28;20035;-46
2022/11/24 10:03:15;;;;;;;42.83;19.23;;;3.30;99.90;;;;;;5068336;28;20376;-47
2022/11/24 10:05:42;;;;;;;42.55;19.45;;;3.30;99.90;;;;;;5034516;28;20025;-47
2022/11/24 10:08:16;;;;;;;43.20;20.30;;;3.40;99.90;;;;;;5067812;28;20028;-47
2022/11/24 10:10:55;;;;;;;44.50;18.90;;;3.50;99.90;;;;;;5039342;28;20038;-46
2022/11/24 10:13:46;;;;;;;42.63;19.10;;;3.50;99.90;;;;;;5068505;28;20020;-48
2022/11/24 10:16:38;;;;;;;43.60;19.77;;;3.60;99.90;;;;;;5047663;28;20032;-50
2022/11/24 10:19:35;;;;;;;40.13;18.65;;;3.70;99.90;;;;;;5028410;28;20052;-49
2022/11/24 10:22:32;;;;;;;39.38;17.42;;;3.70;99.90;;;;;;5043994;28;20389;-47
2022/11/24 10:25:22;;;;;;;41.65;18.60;;;3.70;99.90;;;;;;5027391;28;20029;-46
2022/11/24 10:28:01;;;;;;;46.00;20.88;;;3.70;99.90;;;;;;5066953;28;20027;-50
2022/11/24 10:30:28;;;;;;;39.50;18.35;;;3.70;99.90;;;;;;5035307;28;20027;-49
2022/11/24 10:33:17;;;;;;;40.97;19.30;;;3.70;99.90;;;;;;5066947;28;20025;-48
2022/11/24 10:35:47;;;;;;;51.92;20.88;;;3.70;99.90;;;;;;5039262;28;20020;-49
2022/11/24 10:38:41;;;;;;;45.03;18.55;;;3.70;99.90;;;;;;5068162;28;20043;-47
2022/11/24 10:41:22;;;;;;;46.28;20.55;;;3.80;99.90;;;;;;5042515;28;20056;-47
2022/11/24 10:43:48;;;;;;;43.90;18.77;;;3.80;99.90;;;;;;5028193;28;20079;-49
2022/11/24 10:46:22;;;;;;;49.45;19.52;;;3.90;99.90;;;;;;5065828;28;20403;-49
2022/11/24 10:49:02;;;;;;;43.40;18.85;;;4.00;99.90;;;;;;5031681;28;20032;-48
2022/11/24 10:51:43;;;;;;;38.55;16.45;;;4.00;99.90;;;;;;5042954;28;20033;-49
2022/11/24 10:54:15;;;;;;;43.92;18.80;;;4.10;99.90;;;;;;5070836;28;20516;-48
2022/11/24 10:56:42;;;;;;;46.85;18.92;;;4.20;99.90;;;;;;5049563;28;20033;-52
2022/11/24 10:59:36;;;;;;;39.80;19.00;;;4.20;99.90;;;;;;5070923;28;20028;-52
2022/11/24 11:02:29;;;;;;;43.22;18.30;;;4.30;99.90;;;;;;5047417;28;20037;-47
2022/11/24 11:04:55;;;;;;;44.05;18.15;;;4.30;99.90;;;;;;5031954;28;20086;-51
2022/11/24 11:07:25;;;;;;;42.22;18.05;;;4.40;99.90;;;;;;5051471;28;20021;-46
2022/11/24 11:10:18;;;;;;;44.17;19.55;;;4.50;99.90;;;;;;5031574;28;20509;-49
2022/11/24 11:12:44;;;;;;;41.30;19.00;;;4.60;99.90;;;;;;5031366;28;20493;-48
2022/11/24 11:15:29;;;;;;;47.28;20.48;;;4.60;99.90;;;;;;5068424;28;20444;-47
2022/11/24 11:17:57;;;;;;;44.67;19.55;;;4.60;99.90;;;;;;5071210;28;20123;-50
2022/11/24 11:20:33;;;;;;;35.58;17.33;;;4.70;99.90;;;;;;5053253;28;20108;-48
2022/11/24 11:23:14;;;;;;;41.70;19.10;;;4.80;99.90;;;;;;5071128;28;20028;-50
2022/11/24 11:25:40;;;;;;;36.45;17.13;;;4.80;99.90;;;;;;5041750;28;20035;-48
2022/11/24 11:28:27;;;;;;;34.72;17.63;;;4.90;99.90;;;;;;5071184;28;20099;-47
2022/11/24 11:31:04;;;;;;;35.03;16.73;;;5.00;99.90;;;;;;5045247;28;20055;-51
2022/11/24 11:33:32;;;;;;;39.03;20.13;;;5.00;99.90;;;;;;5051138;28;20389;-47
2022/11/24 11:36:01;;;;;;;40.15;18.25;;;5.00;99.90;;;;;;5059481;28;20112;-48
2022/11/24 11:38:35;;;;;;;38.28;18.00;;;5.00;99.90;;;;;;5070485;28;20029;-50
2022/11/24 11:41:01;;;;;;;36.05;17.88;;;5.00;99.90;;;;;;5047234;28;20531;-51
2022/11/24 11:43:39;;;;;;;45.63;20.92;;;5.10;99.90;;;;;;5051063;28;20025;-48
2022/11/24 11:46:16;;;;;;;46.30;20.98;;;5.10;99.90;;;;;;5068329;28;20036;-48
2022/11/24 11:48:45;;;;;;;38.63;18.50;;;5.10;99.90;;;;;;5030729;28;20044;-48
2022/11/24 11:51:28;;;;;;;40.83;18.15;;;5.10;99.90;;;;;;5066806;28;20081;-50
2022/11/24 11:54:19;;;;;;;39.47;18.50;;;5.10;99.90;;;;;;5030599;28;20087;-51
2022/11/24 11:56:48;;;;;;;38.92;18.65;;;5.20;99.90;;;;;;5043588;28;20029;-50
2022/11/24 11:59:25;;;;;;;42.28;19.80;;;5.20;99.90;;;;;;5068910;28;20411;-51
2022/11/24 12:02:29;;;;;;;48.45;21.35;;;5.30;99.90;;;;;;5048476;28;20502;-49
2022/11/24 12:05:09;;;;;;;46.72;21.52;;;5.30;99.90;;;;;;5030943;28;20056;-47
2022/11/24 12:07:54;;;;;;;48.80;22.27;;;5.30;99.90;;;;;;5050276;28;20424;-46
2022/11/24 12:10:34;;;;;;;35.83;17.20;;;5.40;99.90;;;;;;5035415;28;20025;-47
2022/11/24 12:13:13;;;;;;;40.42;20.05;;;5.40;99.90;;;;;;5070082;28;20029;-52
2022/11/24 12:15:48;;;;;;;46.03;21.05;;;5.40;99.90;;;;;;5040644;28;20024;-46
2022/11/24 12:18:32;;;;;;;42.20;20.67;;;5.30;99.90;;;;;;5070100;28;20033;-45
2022/11/24 12:21:18;;;;;;;44.35;21.00;;;5.30;99.90;;;;;;5045655;28;20032;-46
2022/11/24 12:24:02;;;;;;;52.70;25.50;;;5.20;99.90;;;;;;5049872;28;20514;-47
2022/11/24 12:27:05;;;;;;;46.08;24.33;;;5.00;99.90;;;;;;5053804;28;20097;-47
2022/11/24 12:30:01;;;;;;;39.83;19.90;;;4.90;99.90;;;;;;5050257;28;20083;-45
2022/11/24 12:32:48;;;;;;;43.92;22.00;;;4.90;99.90;;;;;;5029949;28;20056;-45
2022/11/24 12:35:22;;;;;;;46.80;23.20;;;4.90;99.90;;;;;;5061028;28;20445;-45
2022/11/24 12:38:08;;;;;;;44.47;23.60;;;4.90;99.90;;;;;;5069629;28;20023;-45
2022/11/24 12:41:12;;;;;;;50.67;25.00;;;4.80;99.90;;;;;;5039466;28;20110;-49
2022/11/24 12:43:40;;;;;;;42.75;21.75;;;4.70;99.90;;;;;;5024349;28;20041;-45
2022/11/24 12:46:28;;;;;;;46.45;22.98;;;4.70;99.90;;;;;;5057471;28;20154;-46